sensor_id;sensor_type;location;lat;lon;timestamp;P1;durP1;ratioP1;P2;durP2;ratioP2
20445;SDS011;10382;49.140;9.234;2024-01-30T00:01:16;27.38;;;13.68;;
20445;SDS011;10382;49.140;9.234;2024-01-30T00:03:42;21.00;;;12.25;;
20445;SDS011;10382;49.140;9.234;2024-01-30T00:06:09;21.23;;;12.15;;
20445;SDS011;10382;49.140;9.234;2024-01-30T00:08:38;32.50;;;12.50;;
20445;SDS011;10382;49.140;9.234;2024-01-30T00:11:05;22.92;;;13.25;;
20445;SDS011;10382;49.140;9.234;2024-01-30T00:13:33;28.38;;;13.57;;
20445;SDS011;10382;49.140;9.234;2024-01-30T00:16:00;28.75;;;15.30;;
20445;SDS011;10382;49.140;9.234;2024-01-30T00:18:27;25.48;;;14.93;;
20445;SDS011;10382;49.140;9.234;2024-01-30T00:20:54;45.13;;;16.77;;
20445;SDS011;10382;49.140;9.234;2024-01-30T00:23:21;26.55;;;16.60;;
20445;SDS011;10382;49.140;9.234;2024-01-30T00:25:49;27.75;;;15.50;;
20445;SDS011;10382;49.140;9.234;2024-01-30T00:28:16;52.05;;;16.73;;
20445;SDS011;10382;49.140;9.234;2024-01-30T00:30:43;25.23;;;14.75;;
20445;SDS011;10382;49.140;9.234;2024-01-30T00:33:10;25.15;;;14.02;;
20445;SDS011;10382;49.140;9.234;2024-01-30T00:35:37;24.67;;;13.18;;
20445;SDS011;10382;49.140;9.234;2024-01-30T00:38:04;21.88;;;13.45;;
20445;SDS011;10382;49.140;9.234;2024-01-30T00:40:32;26.77;;;14.25;;
20445;SDS011;10382;49.140;9.234;2024-01-30T00:43:01;26.77;;;16.27;;
20445;SDS011;10382;49.140;9.234;2024-01-30T00:45:28;26.63;;;14.48;;
20445;SDS011;10382;49.140;9.234;2024-01-30T00:47:55;27.30;;;15.27;;
20445;SDS011;10382;49.140;9.234;2024-01-30T00:50:21;32.53;;;14.55;;
20445;SDS011;10382;49.140;9.234;2024-01-30T00:52:48;19.48;;;13.23;;
20445;SDS011;10382;49.140;9.234;2024-01-30T00:55:15;25.70;;;13.93;;
20445;SDS011;10382;49.140;9.234;2024-01-30T00:57:42;20.15;;;13.88;;
20445;SDS011;10382;49.140;9.234;2024-01-30T01:00:11;40.78;;;14.80;;
20445;SDS011;10382;49.140;9.234;2024-01-30T01:02:41;40.92;;;14.98;;
20445;SDS011;10382;49.140;9.234;2024-01-30T01:05:09;22.48;;;15.13;;
20445;SDS011;10382;49.140;9.234;2024-01-30T01:07:35;28.42;;;14.85;;
20445;SDS011;10382;49.140;9.234;2024-01-30T01:10:02;35.65;;;15.73;;
20445;SDS011;10382;49.140;9.234;2024-01-30T01:12:30;25.98;;;15.02;;
20445;SDS011;10382;49.140;9.234;2024-01-30T01:14:56;25.80;;;14.63;;
20445;SDS011;10382;49.140;9.234;2024-01-30T01:17:25;24.35;;;15.00;;
20445;SDS011;10382;49.140;9.234;2024-01-30T01:19:52;22.55;;;12.95;;
20445;SDS011;10382;49.140;9.234;2024-01-30T01:22:19;20.70;;;13.52;;
20445;SDS011;10382;49.140;9.234;2024-01-30T01:24:46;24.60;;;12.48;;
20445;SDS011;10382;49.140;9.234;2024-01-30T01:27:12;24.33;;;13.40;;
20445;SDS011;10382;49.140;9.234;2024-01-30T01:29:39;25.50;;;13.90;;
20445;SDS011;10382;49.140;9.234;2024-01-30T01:32:06;19.83;;;11.18;;
20445;SDS011;10382;49.140;9.234;2024-01-30T01:34:34;19.10;;;10.70;;
20445;SDS011;10382;49.140;9.234;2024-01-30T01:37:01;18.05;;;11.15;;
20445;SDS011;10382;49.140;9.234;2024-01-30T01:39:28;18.83;;;11.65;;
20445;SDS011;10382;49.140;9.234;2024-01-30T01:41:55;22.65;;;11.95;;
20445;SDS011;10382;49.140;9.234;2024-01-30T01:44:22;22.90;;;11.95;;
20445;SDS011;10382;49.140;9.234;2024-01-30T01:46:49;18.50;;;12.57;;
20445;SDS011;10382;49.140;9.234;2024-01-30T01:49:17;17.02;;;12.70;;
20445;SDS011;10382;49.140;9.234;2024-01-30T01:51:46;18.70;;;12.25;;
20445;SDS011;10382;49.140;9.234;2024-01-30T01:54:14;21.67;;;11.38;;
20445;SDS011;10382;49.140;9.234;2024-01-30T01:56:42;26.73;;;12.00;;
20445;SDS011;10382;49.140;9.234;2024-01-30T01:59:10;33.42;;;12.88;;
20445;SDS011;10382;49.140;9.234;2024-01-30T02:01:37;24.70;;;13.23;;
20445;SDS011;10382;49.140;9.234;2024-01-30T02:04:04;20.55;;;12.35;;
20445;SDS011;10382;49.140;9.234;2024-01-30T02:06:31;26.40;;;12.05;;
20445;SDS011;10382;49.140;9.234;2024-01-30T02:09:00;14.55;;;11.75;;
20445;SDS011;10382;49.140;9.234;2024-01-30T02:11:29;21.77;;;12.70;;
20445;SDS011;10382;49.140;9.234;2024-01-30T02:13:56;22.45;;;12.38;;
20445;SDS011;10382;49.140;9.234;2024-01-30T02:16:23;26.52;;;11.45;;
20445;SDS011;10382;49.140;9.234;2024-01-30T02:18:50;18.95;;;12.02;;
20445;SDS011;10382;49.140;9.234;2024-01-30T02:21:18;18.30;;;11.93;;
20445;SDS011;10382;49.140;9.234;2024-01-30T02:23:46;20.83;;;11.63;;
20445;SDS011;10382;49.140;9.234;2024-01-30T02:26:14;22.17;;;12.10;;
20445;SDS011;10382;49.140;9.234;2024-01-30T02:28:41;23.05;;;12.98;;
20445;SDS011;10382;49.140;9.234;2024-01-30T02:31:08;21.95;;;14.27;;
20445;SDS011;10382;49.140;9.234;2024-01-30T02:33:35;20.35;;;13.85;;
20445;SDS011;10382;49.140;9.234;2024-01-30T02:36:02;39.53;;;14.63;;
20445;SDS011;10382;49.140;9.234;2024-01-30T02:38:30;26.95;;;13.93;;
20445;SDS011;10382;49.140;9.234;2024-01-30T02:40:57;22.77;;;13.90;;
20445;SDS011;10382;49.140;9.234;2024-01-30T02:43:24;21.92;;;14.68;;
20445;SDS011;10382;49.140;9.234;2024-01-30T02:45:51;26.15;;;13.63;;
20445;SDS011;10382;49.140;9.234;2024-01-30T02:48:17;25.52;;;15.35;;
20445;SDS011;10382;49.140;9.234;2024-01-30T02:50:44;18.00;;;12.02;;
20445;SDS011;10382;49.140;9.234;2024-01-30T02:53:12;26.98;;;13.40;;
20445;SDS011;10382;49.140;9.234;2024-01-30T02:55:40;23.80;;;12.57;;
20445;SDS011;10382;49.140;9.234;2024-01-30T02:58:07;16.58;;;12.73;;
20445;SDS011;10382;49.140;9.234;2024-01-30T03:00:34;17.90;;;12.20;;
20445;SDS011;10382;49.140;9.234;2024-01-30T03:03:01;27.48;;;15.27;;
20445;SDS011;10382;49.140;9.234;2024-01-30T03:05:28;30.75;;;11.82;;
20445;SDS011;10382;49.140;9.234;2024-01-30T03:07:54;17.50;;;11.65;;
20445;SDS011;10382;49.140;9.234;2024-01-30T03:10:21;19.75;;;13.43;;
20445;SDS011;10382;49.140;9.234;2024-01-30T03:12:50;26.23;;;13.77;;
20445;SDS011;10382;49.140;9.234;2024-01-30T03:15:16;28.40;;;13.18;;
20445;SDS011;10382;49.140;9.234;2024-01-30T03:17:43;20.48;;;12.07;;
20445;SDS011;10382;49.140;9.234;2024-01-30T03:20:10;22.92;;;13.00;;
20445;SDS011;10382;49.140;9.234;2024-01-30T03:22:37;24.45;;;13.93;;
20445;SDS011;10382;49.140;9.234;2024-01-30T03:25:04;18.27;;;12.63;;
20445;SDS011;10382;49.140;9.234;2024-01-30T03:27:32;33.95;;;13.05;;
20445;SDS011;10382;49.140;9.234;2024-01-30T03:30:00;24.00;;;12.30;;
20445;SDS011;10382;49.140;9.234;2024-01-30T03:32:27;22.20;;;13.75;;
20445;SDS011;10382;49.140;9.234;2024-01-30T03:34:54;27.60;;;14.13;;
20445;SDS011;10382;49.140;9.234;2024-01-30T03:37:20;25.17;;;17.10;;
20445;SDS011;10382;49.140;9.234;2024-01-30T03:39:47;18.65;;;13.38;;
20445;SDS011;10382;49.140;9.234;2024-01-30T03:42:14;22.27;;;14.88;;
20445;SDS011;10382;49.140;9.234;2024-01-30T03:44:42;18.90;;;12.32;;
20445;SDS011;10382;49.140;9.234;2024-01-30T03:47:10;23.08;;;12.15;;
20445;SDS011;10382;49.140;9.234;2024-01-30T03:49:37;18.80;;;12.13;;
20445;SDS011;10382;49.140;9.234;2024-01-30T03:52:04;20.58;;;13.25;;
20445;SDS011;10382;49.140;9.234;2024-01-30T03:54:31;17.00;;;10.68;;
20445;SDS011;10382;49.140;9.234;2024-01-30T03:56:58;24.15;;;13.25;;
20445;SDS011;10382;49.140;9.234;2024-01-30T03:59:25;22.20;;;13.55;;
20445;SDS011;10382;49.140;9.234;2024-01-30T04:01:52;25.58;;;11.80;;
20445;SDS011;10382;49.140;9.234;2024-01-30T04:04:20;24.33;;;14.25;;
20445;SDS011;10382;49.140;9.234;2024-01-30T04:06:48;29.02;;;13.00;;
20445;SDS011;10382;49.140;9.234;2024-01-30T04:09:15;21.75;;;13.85;;
20445;SDS011;10382;49.140;9.234;2024-01-30T04:11:41;20.25;;;12.00;;
20445;SDS011;10382;49.140;9.234;2024-01-30T04:14:08;25.02;;;13.20;;
20445;SDS011;10382;49.140;9.234;2024-01-30T04:16:35;20.73;;;12.85;;
20445;SDS011;10382;49.140;9.234;2024-01-30T04:19:02;21.42;;;13.60;;
20445;SDS011;10382;49.140;9.234;2024-01-30T04:21:30;24.25;;;12.40;;
20445;SDS011;10382;49.140;9.234;2024-01-30T04:23:57;21.55;;;14.10;;
20445;SDS011;10382;49.140;9.234;2024-01-30T04:26:24;19.75;;;12.15;;
20445;SDS011;10382;49.140;9.234;2024-01-30T04:28:51;20.80;;;12.75;;
20445;SDS011;10382;49.140;9.234;2024-01-30T04:31:18;27.45;;;14.48;;
20445;SDS011;10382;49.140;9.234;2024-01-30T04:33:45;23.20;;;13.05;;
20445;SDS011;10382;49.140;9.234;2024-01-30T04:36:12;28.10;;;14.85;;
20445;SDS011;10382;49.140;9.234;2024-01-30T04:38:40;30.17;;;14.35;;
20445;SDS011;10382;49.140;9.234;2024-01-30T04:41:07;21.15;;;12.55;;
20445;SDS011;10382;49.140;9.234;2024-01-30T04:43:34;19.10;;;11.70;;
20445;SDS011;10382;49.140;9.234;2024-01-30T04:46:01;23.85;;;12.32;;
20445;SDS011;10382;49.140;9.234;2024-01-30T04:48:27;32.60;;;14.10;;
20445;SDS011;10382;49.140;9.234;2024-01-30T04:50:54;25.50;;;12.13;;
20445;SDS011;10382;49.140;9.234;2024-01-30T04:53:21;18.08;;;11.57;;
20445;SDS011;10382;49.140;9.234;2024-01-30T04:55:49;23.08;;;13.57;;
20445;SDS011;10382;49.140;9.234;2024-01-30T04:58:16;18.85;;;13.85;;
20445;SDS011;10382;49.140;9.234;2024-01-30T05:00:43;23.13;;;12.73;;
20445;SDS011;10382;49.140;9.234;2024-01-30T05:03:11;20.85;;;12.48;;
20445;SDS011;10382;49.140;9.234;2024-01-30T05:05:38;22.60;;;13.52;;
20445;SDS011;10382;49.140;9.234;2024-01-30T05:08:04;22.67;;;13.43;;
20445;SDS011;10382;49.140;9.234;2024-01-30T05:10:32;20.45;;;13.32;;
20445;SDS011;10382;49.140;9.234;2024-01-30T05:13:00;24.95;;;12.10;;
20445;SDS011;10382;49.140;9.234;2024-01-30T05:15:27;20.65;;;11.75;;
20445;SDS011;10382;49.140;9.234;2024-01-30T05:17:54;19.63;;;13.38;;
20445;SDS011;10382;49.140;9.234;2024-01-30T05:20:21;17.23;;;12.90;;
20445;SDS011;10382;49.140;9.234;2024-01-30T05:22:48;21.08;;;12.65;;
20445;SDS011;10382;49.140;9.234;2024-01-30T05:25:15;36.97;;;13.65;;
20445;SDS011;10382;49.140;9.234;2024-01-30T05:27:41;27.10;;;12.93;;
20445;SDS011;10382;49.140;9.234;2024-01-30T05:30:10;20.15;;;12.35;;
20445;SDS011;10382;49.140;9.234;2024-01-30T05:32:38;19.65;;;12.02;;
20445;SDS011;10382;49.140;9.234;2024-01-30T05:35:04;16.10;;;10.93;;
20445;SDS011;10382;49.140;9.234;2024-01-30T05:37:32;23.45;;;13.13;;
20445;SDS011;10382;49.140;9.234;2024-01-30T05:39:59;22.30;;;12.82;;
20445;SDS011;10382;49.140;9.234;2024-01-30T05:42:26;24.27;;;14.10;;
20445;SDS011;10382;49.140;9.234;2024-01-30T05:44:53;21.92;;;10.73;;
20445;SDS011;10382;49.140;9.234;2024-01-30T05:47:22;24.30;;;13.00;;
20445;SDS011;10382;49.140;9.234;2024-01-30T05:49:49;23.45;;;11.05;;
20445;SDS011;10382;49.140;9.234;2024-01-30T05:52:15;21.38;;;11.93;;
20445;SDS011;10382;49.140;9.234;2024-01-30T05:54:44;20.70;;;12.98;;
20445;SDS011;10382;49.140;9.234;2024-01-30T05:57:10;17.75;;;11.82;;
20445;SDS011;10382;49.140;9.234;2024-01-30T05:59:37;27.33;;;11.85;;
20445;SDS011;10382;49.140;9.234;2024-01-30T06:02:04;16.52;;;11.95;;
20445;SDS011;10382;49.140;9.234;2024-01-30T06:04:32;19.65;;;11.65;;
20445;SDS011;10382;49.140;9.234;2024-01-30T06:06:59;16.95;;;11.20;;
20445;SDS011;10382;49.140;9.234;2024-01-30T06:09:27;16.08;;;11.30;;
20445;SDS011;10382;49.140;9.234;2024-01-30T06:11:54;15.20;;;11.00;;
20445;SDS011;10382;49.140;9.234;2024-01-30T06:14:21;18.65;;;12.65;;
20445;SDS011;10382;49.140;9.234;2024-01-30T06:16:47;17.13;;;11.50;;
20445;SDS011;10382;49.140;9.234;2024-01-30T06:19:14;21.98;;;12.98;;
20445;SDS011;10382;49.140;9.234;2024-01-30T06:21:42;16.70;;;10.35;;
20445;SDS011;10382;49.140;9.234;2024-01-30T06:24:10;23.17;;;13.77;;
20445;SDS011;10382;49.140;9.234;2024-01-30T06:26:37;18.95;;;11.82;;
20445;SDS011;10382;49.140;9.234;2024-01-30T06:29:04;17.50;;;11.60;;
20445;SDS011;10382;49.140;9.234;2024-01-30T06:31:30;20.80;;;12.57;;
20445;SDS011;10382;49.140;9.234;2024-01-30T06:33:57;19.80;;;12.63;;
20445;SDS011;10382;49.140;9.234;2024-01-30T06:36:24;20.02;;;12.63;;
20445;SDS011;10382;49.140;9.234;2024-01-30T06:38:52;30.38;;;13.07;;
20445;SDS011;10382;49.140;9.234;2024-01-30T06:41:19;27.10;;;13.27;;
20445;SDS011;10382;49.140;9.234;2024-01-30T06:43:46;37.50;;;12.07;;
20445;SDS011;10382;49.140;9.234;2024-01-30T06:46:13;22.98;;;12.77;;
20445;SDS011;10382;49.140;9.234;2024-01-30T06:48:40;23.35;;;14.80;;
20445;SDS011;10382;49.140;9.234;2024-01-30T06:51:09;21.55;;;13.15;;
20445;SDS011;10382;49.140;9.234;2024-01-30T06:53:37;19.30;;;12.02;;
20445;SDS011;10382;49.140;9.234;2024-01-30T06:56:06;19.27;;;13.02;;
20445;SDS011;10382;49.140;9.234;2024-01-30T06:58:33;22.42;;;12.40;;
20445;SDS011;10382;49.140;9.234;2024-01-30T07:00:59;20.08;;;11.60;;
20445;SDS011;10382;49.140;9.234;2024-01-30T07:03:27;23.40;;;12.85;;
20445;SDS011;10382;49.140;9.234;2024-01-30T07:05:54;19.63;;;13.35;;
20445;SDS011;10382;49.140;9.234;2024-01-30T07:08:20;37.50;;;13.88;;
20445;SDS011;10382;49.140;9.234;2024-01-30T07:10:47;26.60;;;14.90;;
20445;SDS011;10382;49.140;9.234;2024-01-30T07:13:16;39.13;;;15.32;;
20445;SDS011;10382;49.140;9.234;2024-01-30T07:15:42;26.38;;;14.73;;
20445;SDS011;10382;49.140;9.234;2024-01-30T07:18:09;36.45;;;16.98;;
20445;SDS011;10382;49.140;9.234;2024-01-30T07:20:38;28.38;;;16.23;;
20445;SDS011;10382;49.140;9.234;2024-01-30T07:23:07;26.63;;;15.88;;
20445;SDS011;10382;49.140;9.234;2024-01-30T07:25:36;25.83;;;15.90;;
20445;SDS011;10382;49.140;9.234;2024-01-30T07:28:03;25.92;;;14.32;;
20445;SDS011;10382;49.140;9.234;2024-01-30T07:30:32;37.47;;;14.20;;
20445;SDS011;10382;49.140;9.234;2024-01-30T07:32:59;21.85;;;13.70;;
20445;SDS011;10382;49.140;9.234;2024-01-30T07:35:25;29.48;;;14.95;;
20445;SDS011;10382;49.140;9.234;2024-01-30T07:37:52;28.65;;;16.02;;
20445;SDS011;10382;49.140;9.234;2024-01-30T07:40:19;27.08;;;14.98;;
20445;SDS011;10382;49.140;9.234;2024-01-30T07:42:47;26.15;;;14.00;;
20445;SDS011;10382;49.140;9.234;2024-01-30T07:45:15;19.40;;;12.32;;
20445;SDS011;10382;49.140;9.234;2024-01-30T07:47:47;28.10;;;13.60;;
20445;SDS011;10382;49.140;9.234;2024-01-30T07:50:14;28.02;;;15.30;;
20445;SDS011;10382;49.140;9.234;2024-01-30T07:52:41;25.70;;;15.55;;
20445;SDS011;10382;49.140;9.234;2024-01-30T07:55:08;19.95;;;13.10;;
20445;SDS011;10382;49.140;9.234;2024-01-30T07:57:35;26.15;;;12.65;;
20445;SDS011;10382;49.140;9.234;2024-01-30T08:00:05;20.52;;;12.50;;
20445;SDS011;10382;49.140;9.234;2024-01-30T08:02:33;30.52;;;14.25;;
20445;SDS011;10382;49.140;9.234;2024-01-30T08:05:01;19.42;;;13.38;;
20445;SDS011;10382;49.140;9.234;2024-01-30T08:07:28;23.85;;;12.73;;
20445;SDS011;10382;49.140;9.234;2024-01-30T08:09:55;26.58;;;13.45;;
20445;SDS011;10382;49.140;9.234;2024-01-30T08:12:22;25.47;;;13.37;;
20445;SDS011;10382;49.140;9.234;2024-01-30T08:14:49;26.73;;;14.00;;
20445;SDS011;10382;49.140;9.234;2024-01-30T08:17:16;28.30;;;15.47;;
20445;SDS011;10382;49.140;9.234;2024-01-30T08:19:43;24.30;;;13.53;;
20445;SDS011;10382;49.140;9.234;2024-01-30T08:22:11;18.20;;;12.10;;
20445;SDS011;10382;49.140;9.234;2024-01-30T08:24:38;34.00;;;13.10;;
20445;SDS011;10382;49.140;9.234;2024-01-30T08:27:06;19.53;;;11.30;;
20445;SDS011;10382;49.140;9.234;2024-01-30T08:29:34;19.13;;;12.17;;
20445;SDS011;10382;49.140;9.234;2024-01-30T08:32:01;14.17;;;10.37;;
20445;SDS011;10382;49.140;9.234;2024-01-30T08:34:28;16.03;;;11.40;;
20445;SDS011;10382;49.140;9.234;2024-01-30T08:36:55;21.70;;;12.80;;
20445;SDS011;10382;49.140;9.234;2024-01-30T08:39:23;16.23;;;11.93;;
20445;SDS011;10382;49.140;9.234;2024-01-30T08:41:50;21.23;;;12.90;;
20445;SDS011;10382;49.140;9.234;2024-01-30T08:44:17;21.20;;;12.87;;
20445;SDS011;10382;49.140;9.234;2024-01-30T08:46:44;17.00;;;13.30;;
20445;SDS011;10382;49.140;9.234;2024-01-30T08:49:11;32.67;;;14.43;;
20445;SDS011;10382;49.140;9.234;2024-01-30T08:51:39;19.50;;;12.07;;
20445;SDS011;10382;49.140;9.234;2024-01-30T08:54:06;23.50;;;13.50;;
20445;SDS011;10382;49.140;9.234;2024-01-30T08:56:34;26.97;;;12.23;;
20445;SDS011;10382;49.140;9.234;2024-01-30T08:59:01;22.80;;;12.87;;
20445;SDS011;10382;49.140;9.234;2024-01-30T09:01:28;21.90;;;13.20;;
20445;SDS011;10382;49.140;9.234;2024-01-30T09:03:55;20.00;;;11.53;;
20445;SDS011;10382;49.140;9.234;2024-01-30T09:06:22;24.63;;;12.03;;
20445;SDS011;10382;49.140;9.234;2024-01-30T09:08:51;24.00;;;12.43;;
20445;SDS011;10382;49.140;9.234;2024-01-30T09:11:18;23.73;;;14.80;;
20445;SDS011;10382;49.140;9.234;2024-01-30T09:13:46;19.20;;;12.00;;
20445;SDS011;10382;49.140;9.234;2024-01-30T09:16:13;19.33;;;12.50;;
20445;SDS011;10382;49.140;9.234;2024-01-30T09:18:41;21.20;;;13.33;;
20445;SDS011;10382;49.140;9.234;2024-01-30T09:21:07;18.53;;;12.53;;
20445;SDS011;10382;49.140;9.234;2024-01-30T09:23:34;25.33;;;13.57;;
20445;SDS011;10382;49.140;9.234;2024-01-30T09:26:01;33.67;;;12.93;;
20445;SDS011;10382;49.140;9.234;2024-01-30T09:28:28;21.33;;;12.27;;
20445;SDS011;10382;49.140;9.234;2024-01-30T09:30:56;17.60;;;12.47;;
20445;SDS011;10382;49.140;9.234;2024-01-30T09:33:23;21.50;;;12.93;;
20445;SDS011;10382;49.140;9.234;2024-01-30T09:35:50;27.70;;;12.93;;
20445;SDS011;10382;49.140;9.234;2024-01-30T09:38:17;17.10;;;12.17;;
20445;SDS011;10382;49.140;9.234;2024-01-30T09:40:44;18.17;;;10.67;;
20445;SDS011;10382;49.140;9.234;2024-01-30T09:43:17;21.17;;;12.60;;
20445;SDS011;10382;49.140;9.234;2024-01-30T09:45:49;17.93;;;11.80;;
20445;SDS011;10382;49.140;9.234;2024-01-30T09:48:18;18.37;;;12.70;;
20445;SDS011;10382;49.140;9.234;2024-01-30T09:50:45;18.47;;;12.50;;
20445;SDS011;10382;49.140;9.234;2024-01-30T09:53:12;21.50;;;12.60;;
20445;SDS011;10382;49.140;9.234;2024-01-30T09:55:40;19.67;;;12.50;;
20445;SDS011;10382;49.140;9.234;2024-01-30T09:58:11;27.30;;;13.37;;
20445;SDS011;10382;49.140;9.234;2024-01-30T10:00:38;22.53;;;13.53;;
20445;SDS011;10382;49.140;9.234;2024-01-30T10:03:05;21.90;;;14.03;;
20445;SDS011;10382;49.140;9.234;2024-01-30T10:05:33;23.63;;;14.13;;
20445;SDS011;10382;49.140;9.234;2024-01-30T10:08:05;26.87;;;16.60;;
20445;SDS011;10382;49.140;9.234;2024-01-30T10:10:33;21.80;;;14.70;;
20445;SDS011;10382;49.140;9.234;2024-01-30T10:13:00;23.43;;;14.23;;
20445;SDS011;10382;49.140;9.234;2024-01-30T10:15:27;18.77;;;12.50;;
20445;SDS011;10382;49.140;9.234;2024-01-30T10:17:54;20.33;;;13.13;;
20445;SDS011;10382;49.140;9.234;2024-01-30T10:20:21;24.10;;;13.40;;
20445;SDS011;10382;49.140;9.234;2024-01-30T10:22:52;28.60;;;15.10;;
20445;SDS011;10382;49.140;9.234;2024-01-30T10:25:19;24.37;;;15.90;;
20445;SDS011;10382;49.140;9.234;2024-01-30T10:27:52;22.13;;;14.53;;
20445;SDS011;10382;49.140;9.234;2024-01-30T10:30:19;17.50;;;11.57;;
20445;SDS011;10382;49.140;9.234;2024-01-30T10:32:46;20.43;;;12.33;;
20445;SDS011;10382;49.140;9.234;2024-01-30T10:35:13;15.40;;;11.37;;
20445;SDS011;10382;49.140;9.234;2024-01-30T10:37:41;26.77;;;15.40;;
20445;SDS011;10382;49.140;9.234;2024-01-30T10:40:13;36.17;;;16.43;;
20445;SDS011;10382;49.140;9.234;2024-01-30T10:42:42;34.53;;;16.73;;
20445;SDS011;10382;49.140;9.234;2024-01-30T10:45:09;24.87;;;13.90;;
20445;SDS011;10382;49.140;9.234;2024-01-30T10:47:39;24.97;;;13.83;;
20445;SDS011;10382;49.140;9.234;2024-01-30T10:50:07;23.80;;;12.97;;
20445;SDS011;10382;49.140;9.234;2024-01-30T10:52:35;18.97;;;13.67;;
20445;SDS011;10382;49.140;9.234;2024-01-30T10:55:03;18.90;;;12.80;;
20445;SDS011;10382;49.140;9.234;2024-01-30T10:57:33;20.53;;;12.43;;
20445;SDS011;10382;49.140;9.234;2024-01-30T11:00:02;18.67;;;12.50;;
20445;SDS011;10382;49.140;9.234;2024-01-30T11:02:35;25.53;;;12.43;;
20445;SDS011;10382;49.140;9.234;2024-01-30T11:05:04;27.33;;;15.03;;
20445;SDS011;10382;49.140;9.234;2024-01-30T11:07:31;20.07;;;13.53;;
20445;SDS011;10382;49.140;9.234;2024-01-30T11:10:01;42.23;;;16.57;;
20445;SDS011;10382;49.140;9.234;2024-01-30T11:12:29;24.23;;;14.63;;
20445;SDS011;10382;49.140;9.234;2024-01-30T11:15:04;23.37;;;13.13;;
20445;SDS011;10382;49.140;9.234;2024-01-30T11:17:45;34.63;;;13.10;;
20445;SDS011;10382;49.140;9.234;2024-01-30T11:20:16;26.93;;;15.47;;
20445;SDS011;10382;49.140;9.234;2024-01-30T11:22:46;21.13;;;14.30;;
20445;SDS011;10382;49.140;9.234;2024-01-30T11:25:14;25.43;;;14.97;;
20445;SDS011;10382;49.140;9.234;2024-01-30T11:27:42;24.07;;;14.53;;
20445;SDS011;10382;49.140;9.234;2024-01-30T11:30:20;21.93;;;14.70;;
20445;SDS011;10382;49.140;9.234;2024-01-30T11:32:57;27.77;;;14.13;;
20445;SDS011;10382;49.140;9.234;2024-01-30T11:35:29;44.17;;;19.60;;
20445;SDS011;10382;49.140;9.234;2024-01-30T11:37:57;32.53;;;16.60;;
20445;SDS011;10382;49.140;9.234;2024-01-30T11:40:24;26.93;;;15.37;;
20445;SDS011;10382;49.140;9.234;2024-01-30T11:42:53;28.30;;;16.33;;
20445;SDS011;10382;49.140;9.234;2024-01-30T11:45:22;24.27;;;14.53;;
20445;SDS011;10382;49.140;9.234;2024-01-30T11:47:49;27.73;;;14.97;;
20445;SDS011;10382;49.140;9.234;2024-01-30T11:50:17;26.57;;;16.30;;
20445;SDS011;10382;49.140;9.234;2024-01-30T11:52:44;26.70;;;15.57;;
20445;SDS011;10382;49.140;9.234;2024-01-30T11:55:11;32.93;;;15.63;;
20445;SDS011;10382;49.140;9.234;2024-01-30T11:57:39;26.83;;;14.17;;
20445;SDS011;10382;49.140;9.234;2024-01-30T12:00:13;26.23;;;14.10;;
20445;SDS011;10382;49.140;9.234;2024-01-30T12:02:42;27.60;;;15.67;;
20445;SDS011;10382;49.140;9.234;2024-01-30T12:05:10;25.40;;;14.50;;
20445;SDS011;10382;49.140;9.234;2024-01-30T12:07:36;31.73;;;16.43;;
20445;SDS011;10382;49.140;9.234;2024-01-30T12:10:04;21.43;;;12.70;;
20445;SDS011;10382;49.140;9.234;2024-01-30T12:12:33;20.63;;;14.07;;
20445;SDS011;10382;49.140;9.234;2024-01-30T12:15:00;22.57;;;14.50;;
20445;SDS011;10382;49.140;9.234;2024-01-30T12:17:28;33.67;;;15.40;;
20445;SDS011;10382;49.140;9.234;2024-01-30T12:20:04;23.70;;;14.90;;
20445;SDS011;10382;49.140;9.234;2024-01-30T12:22:32;22.50;;;14.03;;
20445;SDS011;10382;49.140;9.234;2024-01-30T12:25:00;26.37;;;14.60;;
20445;SDS011;10382;49.140;9.234;2024-01-30T12:27:26;26.83;;;13.90;;
20445;SDS011;10382;49.140;9.234;2024-01-30T12:29:57;22.50;;;14.83;;
20445;SDS011;10382;49.140;9.234;2024-01-30T12:32:24;37.63;;;15.67;;
20445;SDS011;10382;49.140;9.234;2024-01-30T12:34:54;23.30;;;15.77;;
20445;SDS011;10382;49.140;9.234;2024-01-30T12:37:22;32.67;;;16.63;;
20445;SDS011;10382;49.140;9.234;2024-01-30T12:39:50;26.23;;;15.30;;
20445;SDS011;10382;49.140;9.234;2024-01-30T12:42:18;24.60;;;14.90;;
20445;SDS011;10382;49.140;9.234;2024-01-30T12:44:45;27.60;;;15.30;;
20445;SDS011;10382;49.140;9.234;2024-01-30T12:47:12;24.17;;;14.73;;
20445;SDS011;10382;49.140;9.234;2024-01-30T12:49:41;26.40;;;15.43;;
20445;SDS011;10382;49.140;9.234;2024-01-30T12:52:08;29.83;;;15.77;;
20445;SDS011;10382;49.140;9.234;2024-01-30T12:54:36;20.47;;;14.70;;
20445;SDS011;10382;49.140;9.234;2024-01-30T12:57:03;30.37;;;15.30;;
20445;SDS011;10382;49.140;9.234;2024-01-30T12:59:30;20.50;;;14.13;;
20445;SDS011;10382;49.140;9.234;2024-01-30T13:01:58;32.63;;;16.57;;
20445;SDS011;10382;49.140;9.234;2024-01-30T13:04:26;28.40;;;15.57;;
20445;SDS011;10382;49.140;9.234;2024-01-30T13:06:53;27.17;;;16.63;;
20445;SDS011;10382;49.140;9.234;2024-01-30T13:09:20;46.27;;;17.07;;
20445;SDS011;10382;49.140;9.234;2024-01-30T13:11:50;22.30;;;13.00;;
20445;SDS011;10382;49.140;9.234;2024-01-30T13:14:17;29.30;;;17.53;;
20445;SDS011;10382;49.140;9.234;2024-01-30T13:16:44;27.50;;;16.13;;
20445;SDS011;10382;49.140;9.234;2024-01-30T13:19:11;26.97;;;15.33;;
20445;SDS011;10382;49.140;9.234;2024-01-30T13:21:37;22.37;;;15.47;;
20445;SDS011;10382;49.140;9.234;2024-01-30T13:24:05;24.03;;;14.43;;
20445;SDS011;10382;49.140;9.234;2024-01-30T13:26:32;36.13;;;16.00;;
20445;SDS011;10382;49.140;9.234;2024-01-30T13:29:00;28.47;;;14.47;;
20445;SDS011;10382;49.140;9.234;2024-01-30T13:31:27;24.80;;;17.17;;
20445;SDS011;10382;49.140;9.234;2024-01-30T13:33:54;25.30;;;15.07;;
20445;SDS011;10382;49.140;9.234;2024-01-30T13:36:21;22.57;;;15.87;;
20445;SDS011;10382;49.140;9.234;2024-01-30T13:38:48;34.73;;;16.07;;
20445;SDS011;10382;49.140;9.234;2024-01-30T13:41:15;40.37;;;20.83;;
20445;SDS011;10382;49.140;9.234;2024-01-30T13:43:43;37.47;;;25.00;;
20445;SDS011;10382;49.140;9.234;2024-01-30T13:46:11;32.00;;;20.87;;
20445;SDS011;10382;49.140;9.234;2024-01-30T13:48:38;34.40;;;17.77;;
20445;SDS011;10382;49.140;9.234;2024-01-30T13:51:05;30.23;;;16.83;;
20445;SDS011;10382;49.140;9.234;2024-01-30T13:53:32;29.10;;;15.33;;
20445;SDS011;10382;49.140;9.234;2024-01-30T13:55:58;31.83;;;17.43;;
20445;SDS011;10382;49.140;9.234;2024-01-30T13:58:25;30.03;;;16.23;;
20445;SDS011;10382;49.140;9.234;2024-01-30T14:00:52;24.87;;;13.63;;
20445;SDS011;10382;49.140;9.234;2024-01-30T14:03:21;22.50;;;14.43;;
20445;SDS011;10382;49.140;9.234;2024-01-30T14:05:48;25.03;;;15.07;;
20445;SDS011;10382;49.140;9.234;2024-01-30T14:08:15;20.13;;;14.03;;
20445;SDS011;10382;49.140;9.234;2024-01-30T14:10:42;27.60;;;16.40;;
20445;SDS011;10382;49.140;9.234;2024-01-30T14:13:09;28.70;;;15.43;;
20445;SDS011;10382;49.140;9.234;2024-01-30T14:15:36;29.40;;;14.70;;
20445;SDS011;10382;49.140;9.234;2024-01-30T14:18:03;44.40;;;14.77;;
20445;SDS011;10382;49.140;9.234;2024-01-30T14:20:34;27.60;;;14.60;;
20445;SDS011;10382;49.140;9.234;2024-01-30T14:23:01;29.50;;;14.67;;